Time;durP1;ratioP1;P1;durP2;ratioP2;P2;SDS_P1;SDS_P2;PMS_P1;PMS_P2;Temp;Humidity;BMP_temperature;BMP_pressure;BME280_temperature;BME280_humidity;BME280_pressure;Samples;Min_cycle;Max_cycle;Signal;HPM_P1;HPM_P2
2023/08/10 00:01:06;;;;;;;8.23;3.35;;;;;;;;;;4340972;32;354155;-96
2023/08/10 00:03:33;;;;;;;4.12;2.65;;;;;;;;;;4360699;32;316511;-96
2023/08/10 00:06:01;;;;;;;8.85;3.03;;;;;;;;;;4343920;32;316142;-96
2023/08/10 00:08:34;;;;;;;6.47;3.58;;;;;;;;;;4358039;32;316249;-96
2023/08/10 00:11:03;;;;;;;2.83;2.53;;;;;;;;;;4349080;32;316267;-96
2023/08/10 00:13:31;;;;;;;5.12;2.78;;;;;;;;;;4360641;32;316174;-96
2023/08/10 00:15:59;;;;;;;4.80;3.03;;;;;;;;;;4349971;32;316341;-96
2023/08/10 00:18:26;;;;;;;4.90;2.90;;;;;;;;;;4357327;32;316289;-96
2023/08/10 00:20:57;;;;;;;5.75;3.10;;;;;;;;;;4346492;32;316360;-96
2023/08/10 00:23:29;;;;;;;6.28;3.53;;;;;;;;;;4353893;32;316401;-96
2023/08/10 00:26:00;;;;;;;3.35;3.05;;;;;;;;;;4354680;32;324394;-96
2023/08/10 00:28:29;;;;;;;3.95;3.05;;;;;;;;;;4363511;32;316278;-96
2023/08/10 00:30:58;;;;;;;6.93;3.30;;;;;;;;;;4348583;32;316085;-96
2023/08/10 00:33:25;;;;;;;5.80;3.03;;;;;;;;;;4358145;32;316188;-96
2023/08/10 00:35:55;;;;;;;3.10;2.72;;;;;;;;;;4345849;32;316685;-96
2023/08/10 00:38:23;;;;;;;3.20;2.50;;;;;;;;;;4365105;32;316032;-96
2023/08/10 00:40:52;;;;;;;6.85;3.25;;;;;;;;;;4358933;32;315160;-96
2023/08/10 00:43:24;;;;;;;5.47;3.12;;;;;;;;;;4360848;32;316069;-96
2023/08/10 00:45:53;;;;;;;5.85;3.40;;;;;;;;;;4349164;32;316576;-96
2023/08/10 00:48:22;;;;;;;8.18;3.20;;;;;;;;;;4363756;32;315000;-96
2023/08/10 00:50:52;;;;;;;5.05;2.97;;;;;;;;;;4358452;32;316496;-96
2023/08/10 00:53:19;;;;;;;7.90;4.03;;;;;;;;;;4359172;32;316357;-96
2023/08/10 00:55:51;;;;;;;6.85;3.15;;;;;;;;;;4356360;32;316236;-96
2023/08/10 00:58:20;;;;;;;7.87;3.65;;;;;;;;;;4347753;32;416099;-96
2023/08/10 01:00:51;;;;;;;9.45;3.28;;;;;;;;;;4359021;32;316143;-96
2023/08/10 01:06:13;;;;;;;4.12;3.08;;;;;;;;;;4360541;32;315426;-96
2023/08/10 01:08:52;;;;;;;3.50;2.83;;;;;;;;;;4358684;32;316072;-96
2023/08/10 01:11:29;;;;;;;4.15;3.03;;;;;;;;;;4349257;32;420370;-96
2023/08/10 01:14:05;;;;;;;3.90;2.53;;;;;;;;;;4353936;32;315153;-96
2023/08/10 01:16:36;;;;;;;4.53;3.00;;;;;;;;;;4352206;32;316186;-96
2023/08/10 01:19:06;;;;;;;4.45;2.65;;;;;;;;;;4344977;32;316161;-96
2023/08/10 01:21:45;;;;;;;7.10;3.15;;;;;;;;;;4357546;32;342883;-96
2023/08/10 01:24:27;;;;;;;4.20;3.20;;;;;;;;;;4351185;32;316020;-96
2023/08/10 01:26:56;;;;;;;9.07;3.97;;;;;;;;;;4348639;32;344663;-96
2023/08/10 01:29:24;;;;;;;5.40;3.25;;;;;;;;;;4360744;32;316676;-96
2023/08/10 01:31:52;;;;;;;4.68;3.33;;;;;;;;;;4366764;32;316153;-96
2023/08/10 01:34:19;;;;;;;3.92;2.67;;;;;;;;;;4381947;32;315198;-96
2023/08/10 01:36:51;;;;;;;3.55;2.97;;;;;;;;;;4361385;32;315357;-96
2023/08/10 01:39:20;;;;;;;4.30;3.22;;;;;;;;;;4367931;32;418245;-96
2023/08/10 01:41:47;;;;;;;8.68;3.03;;;;;;;;;;4385033;32;316270;-96
2023/08/10 01:44:20;;;;;;;5.30;3.45;;;;;;;;;;4374102;32;401799;-96
2023/08/10 01:46:51;;;;;;;4.05;3.00;;;;;;;;;;4377108;32;316331;-96
2023/08/10 01:49:22;;;;;;;6.72;3.50;;;;;;;;;;4367702;32;419205;-96
2023/08/10 01:51:51;;;;;;;6.85;3.03;;;;;;;;;;4356805;32;315122;-96
2023/08/10 01:54:22;;;;;;;5.28;2.60;;;;;;;;;;4374868;32;315133;-96
2023/08/10 01:56:50;;;;;;;4.03;2.28;;;;;;;;;;4363411;32;316202;-96
2023/08/10 01:59:21;;;;;;;3.70;2.70;;;;;;;;;;4380089;32;316318;-96
2023/08/10 02:01:49;;;;;;;3.12;2.67;;;;;;;;;;4361024;32;369856;-96
2023/08/10 02:04:21;;;;;;;4.12;2.85;;;;;;;;;;4361462;32;316442;-96
2023/08/10 02:06:51;;;;;;;4.30;3.10;;;;;;;;;;4362562;32;365920;-96
2023/08/10 02:09:19;;;;;;;5.43;3.15;;;;;;;;;;4375502;32;316358;-96
2023/08/10 02:11:49;;;;;;;5.00;2.60;;;;;;;;;;4375759;32;316430;-96
2023/08/10 02:14:19;;;;;;;4.93;3.28;;;;;;;;;;4363266;32;419007;-96
2023/08/10 02:16:52;;;;;;;4.82;2.53;;;;;;;;;;4375437;32;343439;-96
2023/08/10 02:19:22;;;;;;;4.10;3.03;;;;;;;;;;4366256;32;419270;-96
2023/08/10 02:21:50;;;;;;;6.05;2.60;;;;;;;;;;4364028;32;316137;-96
2023/08/10 02:24:18;;;;;;;3.40;3.03;;;;;;;;;;4374177;32;316306;-96
2023/08/10 02:26:46;;;;;;;5.72;2.92;;;;;;;;;;4365711;32;316162;-96
2023/08/10 02:29:15;;;;;;;4.05;2.97;;;;;;;;;;4346824;32;419213;-96
2023/08/10 02:31:46;;;;;;;4.20;3.28;;;;;;;;;;4357871;32;316473;-96
2023/08/10 02:34:19;;;;;;;5.03;3.35;;;;;;;;;;4346548;32;412300;-96
2023/08/10 02:36:48;;;;;;;4.72;2.95;;;;;;;;;;4358970;32;316262;-96
2023/08/10 02:39:17;;;;;;;5.18;2.70;;;;;;;;;;4346387;32;419333;-96
2023/08/10 02:41:46;;;;;;;6.32;3.40;;;;;;;;;;4360071;32;316282;-96
2023/08/10 02:44:15;;;;;;;3.50;2.95;;;;;;;;;;4347693;32;418995;-96
2023/08/10 02:46:47;;;;;;;3.97;2.97;;;;;;;;;;4360413;32;316227;-96
2023/08/10 02:49:17;;;;;;;6.97;3.40;;;;;;;;;;4346856;32;419241;-96
2023/08/10 02:51:45;;;;;;;3.17;2.87;;;;;;;;;;4358159;32;316528;-96
2023/08/10 02:54:12;;;;;;;6.43;3.12;;;;;;;;;;4341957;32;419520;-96
2023/08/10 02:56:42;;;;;;;5.80;3.08;;;;;;;;;;4352703;32;316282;-96
2023/08/10 02:59:10;;;;;;;7.32;3.50;;;;;;;;;;4347563;32;316394;-96
2023/08/10 03:01:38;;;;;;;4.30;2.97;;;;;;;;;;4358501;32;349578;-96
2023/08/10 03:04:05;;;;;;;7.55;3.42;;;;;;;;;;4344518;32;316651;-96
2023/08/10 03:06:38;;;;;;;5.65;3.28;;;;;;;;;;4361072;32;316166;-96
2023/08/10 03:09:06;;;;;;;8.05;3.58;;;;;;;;;;4341983;32;316260;-96
2023/08/10 03:11:34;;;;;;;9.25;4.03;;;;;;;;;;4361028;32;316292;-96
2023/08/10 03:14:02;;;;;;;4.93;3.15;;;;;;;;;;4341273;32;316025;-96
2023/08/10 03:16:32;;;;;;;4.75;3.05;;;;;;;;;;4360584;32;316600;-96
2023/08/10 03:19:00;;;;;;;4.25;2.83;;;;;;;;;;4337107;32;316242;-96
2023/08/10 03:21:30;;;;;;;4.47;2.78;;;;;;;;;;4347189;32;316253;-96
2023/08/10 03:24:00;;;;;;;4.28;3.03;;;;;;;;;;4343805;32;316088;-96
2023/08/10 03:26:28;;;;;;;4.12;3.17;;;;;;;;;;4349139;32;316368;-96
2023/08/10 03:28:56;;;;;;;6.82;2.72;;;;;;;;;;4330390;33;316292;-96
2023/08/10 03:31:25;;;;;;;6.30;3.65;;;;;;;;;;4352960;32;316647;-96
2023/08/10 03:33:52;;;;;;;7.95;4.28;;;;;;;;;;4348782;32;316398;-96
2023/08/10 03:36:22;;;;;;;8.52;3.80;;;;;;;;;;4360405;32;316388;-96
2023/08/10 03:38:50;;;;;;;10.18;4.72;;;;;;;;;;4339191;32;316471;-96
2023/08/10 03:41:20;;;;;;;5.10;3.60;;;;;;;;;;4363515;32;317217;-96
2023/08/10 03:43:56;;;;;;;6.05;3.47;;;;;;;;;;4325958;32;396204;-96
2023/08/10 03:46:24;;;;;;;6.72;3.62;;;;;;;;;;4362844;32;316296;-97
2023/08/10 03:48:51;;;;;;;6.03;3.80;;;;;;;;;;4350587;32;316939;-96
2023/08/10 03:51:20;;;;;;;13.13;3.78;;;;;;;;;;4362433;32;316374;-96
2023/08/10 03:53:50;;;;;;;5.72;3.62;;;;;;;;;;4369567;32;316003;-96
2023/08/10 03:56:20;;;;;;;8.32;4.15;;;;;;;;;;4350763;32;316626;-96
2023/08/10 03:58:47;;;;;;;7.18;3.22;;;;;;;;;;4361258;32;316336;-96
2023/08/10 04:01:16;;;;;;;8.57;3.83;;;;;;;;;;4342226;32;316369;-96
2023/08/10 04:03:44;;;;;;;6.57;3.50;;;;;;;;;;4349597;32;316383;-96
2023/08/10 04:06:14;;;;;;;8.25;3.92;;;;;;;;;;4341731;32;316304;-96
2023/08/10 04:08:46;;;;;;;7.55;3.00;;;;;;;;;;4358088;32;316334;-96
2023/08/10 04:11:14;;;;;;;3.93;2.10;;;;;;;;;;4348857;32;316636;-96
2023/08/10 04:13:43;;;;;;;4.35;2.87;;;;;;;;;;4359974;32;316374;-96
2023/08/10 04:16:11;;;;;;;8.43;3.12;;;;;;;;;;4351377;32;316234;-96
2023/08/10 04:18:41;;;;;;;6.35;2.83;;;;;;;;;;4361620;32;316341;-96
2023/08/10 04:21:12;;;;;;;6.45;2.60;;;;;;;;;;4351943;32;316269;-96
2023/08/10 04:23:42;;;;;;;6.30;2.53;;;;;;;;;;4362685;32;346783;-96
2023/08/10 04:26:09;;;;;;;4.28;2.75;;;;;;;;;;4349384;32;316235;-96
2023/08/10 04:28:36;;;;;;;5.50;3.30;;;;;;;;;;4339118;32;316151;-96
2023/08/10 04:31:07;;;;;;;4.03;3.10;;;;;;;;;;4348866;32;316447;-96
2023/08/10 04:33:37;;;;;;;9.10;3.37;;;;;;;;;;4362323;32;316347;-97
2023/08/10 04:36:04;;;;;;;3.83;3.15;;;;;;;;;;4352182;32;316468;-96
2023/08/10 04:38:33;;;;;;;3.72;2.80;;;;;;;;;;4363930;32;316668;-96
2023/08/10 04:41:03;;;;;;;4.97;3.12;;;;;;;;;;4345427;32;316372;-96
2023/08/10 04:43:33;;;;;;;4.28;2.65;;;;;;;;;;4360120;32;316278;-96
2023/08/10 04:46:01;;;;;;;4.70;2.97;;;;;;;;;;4348812;32;316305;-96
2023/08/10 04:48:37;;;;;;;4.47;2.83;;;;;;;;;;4362145;32;316214;-96
2023/08/10 04:51:08;;;;;;;5.15;3.60;;;;;;;;;;4341365;32;316453;-96
2023/08/10 04:53:38;;;;;;;6.15;3.33;;;;;;;;;;4358815;32;316753;-96
2023/08/10 04:56:06;;;;;;;4.43;3.07;;;;;;;;;;4338611;32;316679;-96
2023/08/10 04:58:35;;;;;;;9.05;3.97;;;;;;;;;;4359874;32;316443;-97
2023/08/10 05:01:05;;;;;;;16.42;3.85;;;;;;;;;;4365505;32;316421;-96
2023/08/10 05:03:41;;;;;;;6.32;3.53;;;;;;;;;;4353709;32;317435;-96
2023/08/10 05:06:12;;;;;;;12.70;3.67;;;;;;;;;;4355964;32;316891;-96
2023/08/10 05:08:41;;;;;;;3.58;2.75;;;;;;;;;;4365867;32;317494;-96
2023/08/10 05:11:10;;;;;;;9.50;4.45;;;;;;;;;;4346355;32;316719;-97
2023/08/10 05:13:37;;;;;;;5.70;3.67;;;;;;;;;;4353793;32;316532;-96
2023/08/10 05:16:06;;;;;;;9.60;3.80;;;;;;;;;;4344814;32;316719;-96
2023/08/10 05:18:35;;;;;;;4.47;3.08;;;;;;;;;;4359302;32;345851;-96
2023/08/10 05:21:04;;;;;;;5.32;3.33;;;;;;;;;;4359078;32;340370;-96
2023/08/10 05:23:37;;;;;;;8.07;3.45;;;;;;;;;;4347274;32;419328;-96
2023/08/10 05:26:05;;;;;;;5.70;4.05;;;;;;;;;;4354305;32;316712;-96
2023/08/10 05:28:34;;;;;;;6.82;3.42;;;;;;;;;;4361438;32;316362;-96
2023/08/10 05:31:04;;;;;;;8.43;3.30;;;;;;;;;;4343799;32;352162;-96
2023/08/10 05:33:32;;;;;;;11.02;3.12;;;;;;;;;;4360820;32;316121;-96
2023/08/10 05:36:00;;;;;;;3.97;2.80;;;;;;;;;;4349406;32;317369;-96
2023/08/10 05:38:29;;;;;;;6.37;2.67;;;;;;;;;;4360020;32;316527;-96
2023/08/10 05:40:58;;;;;;;4.75;2.47;;;;;;;;;;4360559;32;316735;-96
2023/08/10 05:43:25;;;;;;;5.32;2.42;;;;;;;;;;4331839;32;388410;-96
2023/08/10 05:45:56;;;;;;;3.08;2.50;;;;;;;;;;4356449;32;316709;-96
2023/08/10 05:48:25;;;;;;;13.00;3.05;;;;;;;;;;4331403;32;419098;-96
2023/08/10 05:50:55;;;;;;;10.27;2.70;;;;;;;;;;4342293;32;317322;-96
2023/08/10 05:53:24;;;;;;;3.37;2.72;;;;;;;;;;4344028;32;420100;-96
2023/08/10 05:55:52;;;;;;;12.70;2.62;;;;;;;;;;4338557;32;316577;-96
2023/08/10 05:58:20;;;;;;;5.03;2.95;;;;;;;;;;4359563;32;316332;-96
2023/08/10 06:00:47;;;;;;;4.87;3.37;;;;;;;;;;4376724;27;318338;-85
2023/08/10 06:03:14;;;;;;;3.45;2.35;;;;;;;;;;4395010;32;317075;-87
2023/08/10 06:05:42;;;;;;;3.97;2.20;;;;;;;;;;4402684;32;317364;-86
2023/08/10 06:08:08;;;;;;;7.90;2.47;;;;;;;;;;4391352;32;317366;-83
2023/08/10 06:10:37;;;;;;;3.67;2.95;;;;;;;;;;4400816;32;317465;-84
2023/08/10 06:13:04;;;;;;;6.47;2.27;;;;;;;;;;4388044;32;347032;-81
2023/08/10 06:15:31;;;;;;;3.80;2.67;;;;;;;;;;4399716;32;316685;-84
2023/08/10 06:17:57;;;;;;;5.82;2.03;;;;;;;;;;4392571;32;333965;-85
2023/08/10 06:20:26;;;;;;;2.80;1.92;;;;;;;;;;4400973;32;317581;-85
2023/08/10 06:22:54;;;;;;;3.12;1.90;;;;;;;;;;4400216;32;317183;-84
2023/08/10 06:25:21;;;;;;;2.47;1.87;;;;;;;;;;4385988;32;416195;-85
2023/08/10 06:27:49;;;;;;;3.28;2.17;;;;;;;;;;4398513;32;317353;-84
2023/08/10 06:30:16;;;;;;;2.75;2.33;;;;;;;;;;4389148;32;317425;-85
2023/08/10 06:32:43;;;;;;;3.62;2.10;;;;;;;;;;4398878;32;316698;-85
2023/08/10 06:35:10;;;;;;;4.07;2.45;;;;;;;;;;4388743;32;316481;-84
2023/08/10 06:37:37;;;;;;;5.95;3.05;;;;;;;;;;4400727;32;316598;-85
2023/08/10 06:40:08;;;;;;;4.28;3.12;;;;;;;;;;4392838;32;317326;-83
2023/08/10 06:42:35;;;;;;;5.90;2.65;;;;;;;;;;4402572;32;316531;-85
2023/08/10 06:45:04;;;;;;;4.80;2.95;;;;;;;;;;4393086;32;317158;-84
2023/08/10 06:47:30;;;;;;;4.35;3.03;;;;;;;;;;4403025;32;317351;-85
2023/08/10 06:49:57;;;;;;;5.47;2.95;;;;;;;;;;4390495;32;317684;-84
2023/08/10 06:52:25;;;;;;;3.17;2.75;;;;;;;;;;4399736;32;317028;-85
2023/08/10 06:54:53;;;;;;;4.10;2.30;;;;;;;;;;4401624;32;316495;-85
2023/08/10 06:57:20;;;;;;;4.45;2.58;;;;;;;;;;4382442;32;329226;-82
2023/08/10 06:59:46;;;;;;;4.05;2.37;;;;;;;;;;4374718;32;316891;-82
2023/08/10 07:02:15;;;;;;;4.22;2.30;;;;;;;;;;4361076;32;317336;-82
2023/08/10 07:04:43;;;;;;;2.53;1.80;;;;;;;;;;4370669;32;340053;-83
2023/08/10 07:07:10;;;;;;;2.08;1.87;;;;;;;;;;4356121;32;316896;-83
2023/08/10 07:09:37;;;;;;;6.68;2.25;;;;;;;;;;4389579;32;317026;-85
2023/08/10 07:12:04;;;;;;;4.62;2.30;;;;;;;;;;4377846;32;317169;-88
2023/08/10 07:14:31;;;;;;;1.87;1.60;;;;;;;;;;4381207;32;316730;-82
2023/08/10 07:17:04;;;;;;;3.12;2.10;;;;;;;;;;4361454;32;317395;-82
2023/08/10 07:19:32;;;;;;;4.55;2.22;;;;;;;;;;4364827;32;317224;-86
2023/08/10 07:21:59;;;;;;;4.97;2.62;;;;;;;;;;4351164;32;317490;-83
2023/08/10 07:24:25;;;;;;;3.90;2.60;;;;;;;;;;4364751;32;317346;-84
2023/08/10 07:26:53;;;;;;;4.07;2.55;;;;;;;;;;4372837;32;317394;-83
2023/08/10 07:29:19;;;;;;;4.65;2.33;;;;;;;;;;4365352;32;317427;-85
2023/08/10 07:31:49;;;;;;;2.80;2.22;;;;;;;;;;4375061;32;317861;-83
2023/08/10 07:34:15;;;;;;;5.57;1.87;;;;;;;;;;4363213;32;317140;-82
2023/08/10 07:36:44;;;;;;;3.15;2.20;;;;;;;;;;4373365;32;317310;-82
2023/08/10 07:39:13;;;;;;;2.65;2.08;;;;;;;;;;4362592;32;317272;-83
2023/08/10 07:41:40;;;;;;;7.35;3.37;;;;;;;;;;4356542;32;317624;-86
2023/08/10 07:44:07;;;;;;;14.57;3.87;;;;;;;;;;4359513;32;339053;-81
2023/08/10 07:46:33;;;;;;;11.85;7.00;;;;;;;;;;4370737;32;318560;-84
2023/08/10 07:49:00;;;;;;;8.95;4.93;;;;;;;;;;4346741;32;318727;-86
2023/08/10 07:51:27;;;;;;;5.00;3.62;;;;;;;;;;4366217;32;317278;-80
2023/08/10 07:53:55;;;;;;;8.55;4.82;;;;;;;;;;4347938;32;317128;-85
2023/08/10 07:56:22;;;;;;;9.27;4.65;;;;;;;;;;4337589;32;416747;-83
2023/08/10 07:58:49;;;;;;;10.55;4.57;;;;;;;;;;4373628;32;317602;-78
2023/08/10 08:01:15;;;;;;;5.78;4.20;;;;;;;;;;4374114;32;318487;-81
2023/08/10 08:03:42;;;;;;;5.12;4.20;;;;;;;;;;4384513;32;317500;-82
2023/08/10 08:06:10;;;;;;;10.25;4.68;;;;;;;;;;4374393;32;316976;-82
2023/08/10 08:08:36;;;;;;;10.07;4.47;;;;;;;;;;4386583;32;323842;-84
2023/08/10 08:11:05;;;;;;;7.85;4.22;;;;;;;;;;4377679;32;318238;-82
2023/08/10 08:13:31;;;;;;;5.50;4.72;;;;;;;;;;4385276;32;317227;-82
2023/08/10 08:15:58;;;;;;;8.30;4.90;;;;;;;;;;4375990;32;317279;-82
2023/08/10 08:18:54;;;;;;;5.25;4.25;;;;;;;;;;4386022;32;317296;-80
2023/08/10 08:21:23;;;;;;;3.75;3.33;;;;;;;;;;4341061;32;416689;-88
2023/08/10 08:23:50;;;;;;;9.00;4.00;;;;;;;;;;4387119;32;317182;-85
2023/08/10 08:26:20;;;;;;;5.28;3.40;;;;;;;;;;4378383;32;316874;-83
2023/08/10 08:28:47;;;;;;;5.12;3.85;;;;;;;;;;4389400;32;316501;-83
2023/08/10 08:31:14;;;;;;;8.43;4.10;;;;;;;;;;4374852;32;317621;-82
2023/08/10 08:33:41;;;;;;;6.45;4.75;;;;;;;;;;4383245;32;317340;-82
2023/08/10 08:36:08;;;;;;;7.03;4.43;;;;;;;;;;4372038;32;316914;-81
2023/08/10 08:38:36;;;;;;;5.78;3.72;;;;;;;;;;4376741;32;316724;-82
2023/08/10 08:41:04;;;;;;;8.50;4.10;;;;;;;;;;4374680;32;317016;-83
2023/08/10 08:43:33;;;;;;;4.43;3.17;;;;;;;;;;4385305;32;316608;-82
2023/08/10 08:46:01;;;;;;;6.30;3.28;;;;;;;;;;4375396;32;357071;-86
2023/08/10 08:48:29;;;;;;;6.62;2.87;;;;;;;;;;4389690;32;316576;-84
2023/08/10 08:50:56;;;;;;;7.18;3.33;;;;;;;;;;4374227;32;316790;-83
2023/08/10 08:53:23;;;;;;;6.62;2.95;;;;;;;;;;4371949;32;316263;-86
2023/08/10 08:55:50;;;;;;;3.15;2.67;;;;;;;;;;4384725;32;317473;-82
2023/08/10 08:58:20;;;;;;;8.43;4.30;;;;;;;;;;4376530;32;317455;-83
2023/08/10 09:00:50;;;;;;;9.07;2.78;;;;;;;;;;4385870;32;317312;-86
2023/08/10 09:03:17;;;;;;;7.00;3.40;;;;;;;;;;4376540;32;317355;-82
2023/08/10 09:05:45;;;;;;;3.65;2.72;;;;;;;;;;4386056;32;317470;-84
2023/08/10 09:08:14;;;;;;;3.00;1.75;;;;;;;;;;4374974;32;317720;-83
2023/08/10 09:10:41;;;;;;;3.72;3.40;;;;;;;;;;4386454;32;324916;-84
2023/08/10 09:13:12;;;;;;;7.57;2.77;;;;;;;;;;4374721;32;321060;-84
2023/08/10 09:15:39;;;;;;;3.40;2.92;;;;;;;;;;4384699;32;317238;-83
2023/08/10 09:18:07;;;;;;;5.25;2.00;;;;;;;;;;4375265;32;316673;-83
2023/08/10 09:20:34;;;;;;;5.87;2.92;;;;;;;;;;4386611;32;316430;-84
2023/08/10 09:23:01;;;;;;;4.32;2.95;;;;;;;;;;4374724;32;317141;-81
2023/08/10 09:25:37;;;;;;;5.85;2.92;;;;;;;;;;4385732;32;316400;-82
2023/08/10 09:28:09;;;;;;;6.30;3.03;;;;;;;;;;4374852;32;317052;-83
2023/08/10 09:30:36;;;;;;;3.28;2.67;;;;;;;;;;4384360;32;317095;-83
2023/08/10 09:33:04;;;;;;;2.53;2.10;;;;;;;;;;4376193;32;316789;-82
2023/08/10 09:35:32;;;;;;;5.72;2.72;;;;;;;;;;4383891;32;317134;-83
2023/08/10 09:38:02;;;;;;;3.10;2.55;;;;;;;;;;4374816;32;316435;-83
2023/08/10 09:40:29;;;;;;;4.53;2.80;;;;;;;;;;4384275;32;317086;-83
2023/08/10 09:42:56;;;;;;;5.45;3.42;;;;;;;;;;4376576;32;316710;-84
2023/08/10 09:45:22;;;;;;;3.17;2.78;;;;;;;;;;4387020;32;317180;-83
2023/08/10 09:47:49;;;;;;;6.90;3.78;;;;;;;;;;4400869;32;316691;-84
2023/08/10 09:50:17;;;;;;;4.10;3.65;;;;;;;;;;4390403;32;316478;-85
2023/08/10 09:52:46;;;;;;;4.10;3.65;;;;;;;;;;4387993;32;343514;-84
2023/08/10 09:55:13;;;;;;;8.52;3.83;;;;;;;;;;4374415;32;317461;-84
2023/08/10 09:57:44;;;;;;;3.37;2.70;;;;;;;;;;4385791;32;317221;-84
2023/08/10 10:00:14;;;;;;;4.20;2.95;;;;;;;;;;4375546;32;317009;-85
2023/08/10 10:02:41;;;;;;;5.53;3.30;;;;;;;;;;4385918;32;317728;-86
2023/08/10 10:05:08;;;;;;;6.57;3.08;;;;;;;;;;4376625;32;317091;-85
2023/08/10 10:07:36;;;;;;;5.18;3.42;;;;;;;;;;4384739;32;346456;-84
2023/08/10 10:10:06;;;;;;;5.85;2.40;;;;;;;;;;4374936;32;316657;-87
2023/08/10 10:12:37;;;;;;;3.25;2.80;;;;;;;;;;4385051;32;317296;-90
2023/08/10 10:15:07;;;;;;;3.55;2.53;;;;;;;;;;4374013;32;317325;-85
2023/08/10 10:17:34;;;;;;;3.05;2.70;;;;;;;;;;4382593;32;317205;-86
2023/08/10 10:20:04;;;;;;;3.53;2.75;;;;;;;;;;4372735;32;317191;-84
2023/08/10 10:22:32;;;;;;;10.45;3.00;;;;;;;;;;4383331;32;317582;-84
2023/08/10 10:24:59;;;;;;;4.85;3.10;;;;;;;;;;4371762;32;317335;-84
2023/08/10 10:27:40;;;;;;;7.05;3.83;;;;;;;;;;4379647;32;327835;-84
2023/08/10 10:30:16;;;;;;;3.72;2.58;;;;;;;;;;4371578;32;317378;-80
2023/08/10 10:32:47;;;;;;;3.45;2.30;;;;;;;;;;4385203;32;317459;-81
2023/08/10 10:35:16;;;;;;;2.53;2.15;;;;;;;;;;4386229;32;316681;-80
2023/08/10 10:37:43;;;;;;;3.47;2.05;;;;;;;;;;4393959;32;317078;-81
2023/08/10 10:40:15;;;;;;;4.85;1.67;;;;;;;;;;4387503;32;316519;-82
2023/08/10 10:43:06;;;;;;;3.58;2.20;;;;;;;;;;4396251;32;316043;-81
2023/08/10 10:45:36;;;;;;;5.18;2.15;;;;;;;;;;4383022;32;415764;-80
2023/08/10 10:48:04;;;;;;;3.55;2.37;;;;;;;;;;4365382;32;316602;-79
2023/08/10 10:50:31;;;;;;;2.72;2.35;;;;;;;;;;4385796;32;317364;-80
2023/08/10 10:52:59;;;;;;;2.50;2.30;;;;;;;;;;4374992;32;317531;-80
2023/08/10 10:55:28;;;;;;;8.68;3.08;;;;;;;;;;4384274;32;317492;-80
2023/08/10 10:57:55;;;;;;;4.20;2.78;;;;;;;;;;4376078;32;317233;-80
2023/08/10 11:00:24;;;;;;;8.70;3.00;;;;;;;;;;4385425;32;317381;-80
2023/08/10 11:02:51;;;;;;;4.80;3.45;;;;;;;;;;4361662;32;325857;-79
2023/08/10 11:05:20;;;;;;;2.22;1.98;;;;;;;;;;4384436;32;316399;-80
2023/08/10 11:07:48;;;;;;;2.55;2.10;;;;;;;;;;4385880;32;316711;-80
2023/08/10 11:10:17;;;;;;;8.60;2.85;;;;;;;;;;4371602;32;417768;-80
2023/08/10 11:12:45;;;;;;;3.22;2.47;;;;;;;;;;4385295;32;317568;-80
2023/08/10 11:15:13;;;;;;;3.53;2.53;;;;;;;;;;4375459;32;316765;-79
2023/08/10 11:17:42;;;;;;;5.55;2.50;;;;;;;;;;4384451;32;317201;-80
2023/08/10 11:20:12;;;;;;;6.93;3.37;;;;;;;;;;4374722;32;317338;-80
2023/08/10 11:22:40;;;;;;;8.65;2.40;;;;;;;;;;4384426;32;317259;-80
2023/08/10 11:25:11;;;;;;;2.42;2.12;;;;;;;;;;4375688;32;317367;-80
2023/08/10 11:27:39;;;;;;;8.73;2.83;;;;;;;;;;4384570;32;317230;-80
2023/08/10 11:30:09;;;;;;;8.13;2.67;;;;;;;;;;4375201;32;316577;-80
2023/08/10 11:32:38;;;;;;;2.85;2.55;;;;;;;;;;4385622;32;316569;-80
2023/08/10 11:35:07;;;;;;;3.40;2.62;;;;;;;;;;4374166;32;317358;-80
2023/08/10 11:37:37;;;;;;;7.45;3.22;;;;;;;;;;4384320;32;316579;-80
2023/08/10 11:40:11;;;;;;;3.83;2.92;;;;;;;;;;4375255;32;316876;-80
2023/08/10 11:42:38;;;;;;;6.07;2.20;;;;;;;;;;4379513;32;317539;-80
2023/08/10 11:45:11;;;;;;;2.20;1.95;;;;;;;;;;4374918;32;317085;-80
2023/08/10 11:47:42;;;;;;;2.58;2.37;;;;;;;;;;4378351;32;316523;-79
2023/08/10 11:50:12;;;;;;;3.50;2.00;;;;;;;;;;4374780;32;323079;-80
2023/08/10 11:52:40;;;;;;;3.08;1.90;;;;;;;;;;4385195;32;317058;-80
2023/08/10 11:55:12;;;;;;;2.45;2.25;;;;;;;;;;4371293;32;317056;-80
2023/08/10 11:57:41;;;;;;;6.30;2.47;;;;;;;;;;4384177;32;317241;-80
2023/08/10 12:00:21;;;;;;;2.97;2.00;;;;;;;;;;4374936;32;317533;-79
2023/08/10 12:03:00;;;;;;;3.28;2.62;;;;;;;;;;4383660;32;316418;-80
2023/08/10 12:05:43;;;;;;;3.35;2.75;;;;;;;;;;4355458;32;416388;-80
2023/08/10 12:08:12;;;;;;;4.37;3.05;;;;;;;;;;4358169;32;347039;-81
2023/08/10 12:10:41;;;;;;;3.72;2.78;;;;;;;;;;4369817;32;317624;-80
2023/08/10 12:13:10;;;;;;;2.72;2.53;;;;;;;;;;4358793;32;317051;-80
2023/08/10 12:15:37;;;;;;;5.43;2.67;;;;;;;;;;4366114;32;316790;-80
2023/08/10 12:18:05;;;;;;;5.82;2.80;;;;;;;;;;4366039;32;317164;-79
2023/08/10 12:20:33;;;;;;;5.32;3.22;;;;;;;;;;4374792;32;317367;-81
2023/08/10 12:23:01;;;;;;;6.75;3.08;;;;;;;;;;4366716;32;316510;-81
2023/08/10 12:25:28;;;;;;;5.28;2.80;;;;;;;;;;4378313;32;317383;-80
2023/08/10 12:27:55;;;;;;;4.82;2.72;;;;;;;;;;4366523;32;317373;-80
2023/08/10 12:30:23;;;;;;;3.58;2.70;;;;;;;;;;4375891;32;317487;-81
2023/08/10 12:32:49;;;;;;;5.50;3.10;;;;;;;;;;4363875;32;316684;-82
2023/08/10 12:35:16;;;;;;;7.50;2.83;;;;;;;;;;4377352;32;316499;-81
2023/08/10 12:37:43;;;;;;;2.70;2.45;;;;;;;;;;4376997;32;317051;-80
2023/08/10 12:40:12;;;;;;;3.53;2.80;;;;;;;;;;4364690;32;317662;-81
2023/08/10 12:42:40;;;;;;;3.42;3.12;;;;;;;;;;4373844;32;317110;-81
2023/08/10 12:45:10;;;;;;;4.15;3.42;;;;;;;;;;4367071;32;317178;-81
2023/08/10 12:47:38;;;;;;;9.82;2.70;;;;;;;;;;4378202;32;317032;-80
2023/08/10 12:50:06;;;;;;;4.03;3.17;;;;;;;;;;4372396;32;316445;-82
2023/08/10 12:52:33;;;;;;;4.68;2.50;;;;;;;;;;4383957;32;316581;-81
2023/08/10 12:55:01;;;;;;;3.53;2.97;;;;;;;;;;4372718;32;317417;-81
2023/08/10 12:57:29;;;;;;;2.45;2.22;;;;;;;;;;4383928;32;316717;-82
2023/08/10 12:59:58;;;;;;;3.97;2.47;;;;;;;;;;4374459;32;316646;-81
2023/08/10 13:02:25;;;;;;;2.75;2.35;;;;;;;;;;4382712;32;330979;-81
2023/08/10 13:04:52;;;;;;;2.72;2.17;;;;;;;;;;4374416;32;317066;-81
2023/08/10 13:07:19;;;;;;;4.20;2.90;;;;;;;;;;4384315;32;317332;-82
2023/08/10 13:09:45;;;;;;;6.55;2.95;;;;;;;;;;4384267;32;317232;-81
2023/08/10 13:12:13;;;;;;;2.87;2.58;;;;;;;;;;4373410;32;316978;-81
2023/08/10 13:14:41;;;;;;;3.50;2.50;;;;;;;;;;4384059;32;316852;-81
2023/08/10 13:17:08;;;;;;;8.18;2.40;;;;;;;;;;4374885;32;317083;-81
2023/08/10 13:19:35;;;;;;;4.47;3.15;;;;;;;;;;4383683;32;343040;-81
2023/08/10 13:22:02;;;;;;;7.82;2.72;;;;;;;;;;4373638;32;316650;-81
2023/08/10 13:24:29;;;;;;;9.43;2.47;;;;;;;;;;4383846;32;316863;-81
2023/08/10 13:26:56;;;;;;;2.92;2.40;;;;;;;;;;4373027;32;317092;-81
2023/08/10 13:29:22;;;;;;;3.22;2.17;;;;;;;;;;4383321;32;317232;-81
2023/08/10 13:31:51;;;;;;;2.37;2.10;;;;;;;;;;4382152;32;316860;-83
2023/08/10 13:34:18;;;;;;;6.62;2.58;;;;;;;;;;4383984;32;316576;-81
2023/08/10 13:36:44;;;;;;;2.15;1.95;;;;;;;;;;4384039;32;316351;-81
2023/08/10 13:39:11;;;;;;;3.15;2.03;;;;;;;;;;4372680;32;317181;-81
2023/08/10 13:41:38;;;;;;;2.25;1.92;;;;;;;;;;4383755;32;316524;-81
2023/08/10 13:44:05;;;;;;;1.67;1.30;;;;;;;;;;4373370;32;316748;-81
2023/08/10 13:46:32;;;;;;;5.22;1.60;;;;;;;;;;4382901;32;345401;-81
2023/08/10 13:49:01;;;;;;;2.55;2.12;;;;;;;;;;4372433;32;317148;-81
2023/08/10 13:51:28;;;;;;;3.55;2.45;;;;;;;;;;4383947;32;317260;-81
2023/08/10 13:53:55;;;;;;;2.40;1.85;;;;;;;;;;4373480;32;317248;-82
2023/08/10 13:56:21;;;;;;;3.60;2.35;;;;;;;;;;4376842;32;316448;-81
2023/08/10 13:58:48;;;;;;;5.53;2.47;;;;;;;;;;4381642;32;317699;-80
2023/08/10 14:01:15;;;;;;;3.05;1.90;;;;;;;;;;4354545;32;417724;-80
2023/08/10 14:03:44;;;;;;;5.03;2.28;;;;;;;;;;4368226;32;317038;-81
2023/08/10 14:06:12;;;;;;;7.15;2.40;;;;;;;;;;4358815;32;316656;-80
2023/08/10 14:08:39;;;;;;;5.75;2.00;;;;;;;;;;4368296;32;316397;-80
2023/08/10 14:11:06;;;;;;;8.75;1.70;;;;;;;;;;4358591;32;316925;-82
2023/08/10 14:13:34;;;;;;;3.33;1.95;;;;;;;;;;4367352;32;331807;-80
2023/08/10 14:16:00;;;;;;;2.45;2.15;;;;;;;;;;4358429;32;317242;-81
2023/08/10 14:18:27;;;;;;;3.67;2.65;;;;;;;;;;4366555;32;317250;-81
2023/08/10 14:20:54;;;;;;;6.50;3.12;;;;;;;;;;4358691;32;316542;-80
2023/08/10 14:23:22;;;;;;;4.70;2.83;;;;;;;;;;4368028;32;317369;-81
2023/08/10 14:25:49;;;;;;;7.18;2.80;;;;;;;;;;4354688;32;316852;-81
2023/08/10 14:28:15;;;;;;;3.72;2.75;;;;;;;;;;4369349;32;416767;-81
2023/08/10 14:30:42;;;;;;;6.07;3.12;;;;;;;;;;4382154;32;316936;-81
2023/08/10 14:33:09;;;;;;;4.53;2.70;;;;;;;;;;4373567;32;317090;-80
2023/08/10 14:35:36;;;;;;;9.25;2.65;;;;;;;;;;4383377;32;317305;-81
2023/08/10 14:38:02;;;;;;;5.03;3.60;;;;;;;;;;4373385;32;316644;-81
2023/08/10 14:40:31;;;;;;;5.07;3.70;;;;;;;;;;4382196;32;317332;-80